Time;durP1;ratioP1;P1;durP2;ratioP2;P2;SDS_P1;SDS_P2;PMS_P1;PMS_P2;Temp;Humidity;BMP_temperature;BMP_pressure;BME280_temperature;BME280_humidity;BME280_pressure;Samples;Min_cycle;Max_cycle;Signal;HPM_P1;HPM_P2
2023/03/20 00:00:37;;;;;;;73.00;43.70;;;;;;;9.45;95.59;99724.68;107521;1279;67144;-69
2023/03/20 00:03:24;;;;;;;66.10;39.10;;;;;;;9.48;95.83;99720.14;107517;1278;72812;-70
2023/03/20 00:06:22;;;;;;;64.60;39.20;;;;;;;9.53;95.40;99724.36;107488;1278;59614;-71
2023/03/20 00:09:10;;;;;;;69.50;39.30;;;;;;;9.53;95.38;99726.64;107557;1278;58829;-71
2023/03/20 00:11:57;;;;;;;65.90;38.90;;;;;;;9.55;95.22;99726.02;107531;1278;71502;-70
2023/03/20 00:14:43;;;;;;;69.70;41.60;;;;;;;9.55;95.11;99723.52;107488;1279;67085;-70
2023/03/20 00:17:29;;;;;;;72.40;43.60;;;;;;;9.53;95.35;99718.33;107466;1278;71298;-71
2023/03/20 00:20:17;;;;;;;68.70;39.40;;;;;;;9.54;95.74;99716.66;107270;1281;59262;-71
2023/03/20 00:23:04;;;;;;;68.60;39.80;;;;;;;9.53;95.01;99712.84;107304;1280;60325;-71
2023/03/20 00:25:51;;;;;;;66.80;39.20;;;;;;;9.53;95.14;99712.52;107317;1281;73132;-71
2023/03/20 00:28:44;;;;;;;68.10;39.80;;;;;;;9.51;95.42;99708.93;107206;1281;68813;-71
2023/03/20 00:31:37;;;;;;;68.10;40.90;;;;;;;9.51;95.33;99709.83;107150;1280;72643;-71
2023/03/20 00:34:28;;;;;;;66.60;39.00;;;;;;;9.50;95.64;99708.49;107020;1282;59348;-71
2023/03/20 00:37:14;;;;;;;71.30;41.80;;;;;;;9.50;95.72;99707.21;107187;1282;59673;-72
2023/03/20 00:40:01;;;;;;;65.10;40.80;;;;;;;9.50;95.43;99710.63;106959;1281;73053;-70
2023/03/20 00:42:58;;;;;;;63.70;39.90;;;;;;;9.47;95.74;99705.92;107213;1281;68051;-75
2023/03/20 00:45:45;;;;;;;68.70;38.50;;;;;;;9.49;95.78;99706.25;107081;1280;73650;-71
2023/03/20 00:48:31;;;;;;;62.80;38.20;;;;;;;9.45;95.57;99705.54;107199;1282;57398;-73
2023/03/20 00:51:18;;;;;;;67.40;40.00;;;;;;;9.42;95.86;99705.44;107378;1279;60181;-73
2023/03/20 00:54:14;;;;;;;62.90;37.60;;;;;;;9.39;95.82;99704.73;107397;1278;72924;-71
2023/03/20 00:57:16;;;;;;;60.60;32.30;;;;;;;9.33;95.55;99702.21;107526;1278;68590;-72
2023/03/20 01:00:18;;;;;;;75.00;43.70;;;;;;;9.27;95.53;99698.30;107468;1278;71402;-73
2023/03/20 01:03:15;;;;;;;89.40;47.00;;;;;;;9.23;96.12;99697.38;107342;1279;58110;-72
2023/03/20 01:06:01;;;;;;;91.00;49.60;;;;;;;9.19;96.54;99692.70;107482;1279;61237;-72
2023/03/20 01:08:47;;;;;;;102.70;52.80;;;;;;;9.19;96.56;99695.84;107559;1278;73935;-72
2023/03/20 01:11:34;;;;;;;103.50;54.80;;;;;;;9.18;96.78;99692.77;107497;1278;67758;-70
2023/03/20 01:14:21;;;;;;;99.80;54.70;;;;;;;9.19;97.09;99696.56;107481;1279;71081;-70
2023/03/20 01:17:27;;;;;;;92.80;49.50;;;;;;;9.18;96.43;99693.84;107500;1279;57672;-69
2023/03/20 01:20:25;;;;;;;93.40;47.40;;;;;;;9.15;96.90;99696.54;107425;1279;59430;-70
2023/03/20 01:23:12;;;;;;;73.80;41.20;;;;;;;9.15;97.30;99693.17;107262;1278;72745;-71
2023/03/20 01:25:59;;;;;;;78.60;42.00;;;;;;;9.16;97.51;99696.25;107477;1279;66382;-69
2023/03/20 01:28:46;;;;;;;77.90;40.70;;;;;;;9.12;97.16;99692.84;107518;1279;73672;-69
2023/03/20 01:31:32;;;;;;;76.50;40.30;;;;;;;9.15;97.38;99698.09;107437;1279;57331;-69
2023/03/20 01:34:20;;;;;;;67.60;36.40;;;;;;;9.15;97.36;99693.29;107468;1279;61081;-69
2023/03/20 01:37:16;;;;;;;57.70;33.20;;;;;;;9.13;97.19;99692.61;107500;1278;71733;-69
2023/03/20 01:40:10;;;;;;;57.90;31.10;;;;;;;9.08;97.28;99689.81;107418;1279;68718;-70
2023/03/20 01:42:58;;;;;;;55.40;33.70;;;;;;;9.05;97.15;99686.71;107452;1279;72473;-70
2023/03/20 01:45:55;;;;;;;53.40;31.30;;;;;;;9.02;97.23;99684.76;107385;1278;59215;-70
2023/03/20 01:48:51;;;;;;;51.90;30.10;;;;;;;8.98;97.03;99686.35;107465;1279;58173;-69
2023/03/20 01:51:38;;;;;;;51.50;29.20;;;;;;;8.93;97.02;99689.18;107373;1278;72880;-69
2023/03/20 01:54:36;;;;;;;48.70;30.40;;;;;;;8.89;97.26;99687.18;107350;1279;67866;-69
2023/03/20 01:57:25;;;;;;;47.40;29.70;;;;;;;8.85;96.96;99687.29;107453;1279;71643;-70
2023/03/20 02:00:15;;;;;;;55.80;29.30;;;;;;;8.81;97.25;99684.75;107414;1279;57996;-69
2023/03/20 02:03:05;;;;;;;50.60;28.60;;;;;;;8.77;97.15;99684.40;107444;1279;61235;-69
2023/03/20 02:06:26;;;;;;;47.60;26.50;;;;;;;8.73;97.23;99679.79;107170;1278;72775;-69
2023/03/20 02:09:22;;;;;;;45.00;27.70;;;;;;;8.68;97.49;99677.98;107494;1279;68003;-70
2023/03/20 02:12:10;;;;;;;47.40;26.80;;;;;;;8.66;97.56;99676.02;107482;1278;71439;-70
2023/03/20 02:14:57;;;;;;;47.30;27.80;;;;;;;8.61;97.14;99677.66;107411;1279;58152;-69
2023/03/20 02:18:02;;;;;;;47.60;25.90;;;;;;;8.53;97.29;99673.27;107482;1279;60264;-72
2023/03/20 02:21:45;;;;;;;45.50;26.10;;;;;;;8.47;97.44;99673.17;107330;1279;72830;-70
2023/03/20 02:24:41;;;;;;;45.50;27.30;;;;;;;8.37;97.26;99670.18;107503;1279;67720;-70
2023/03/20 02:27:42;;;;;;;43.90;27.40;;;;;;;8.30;97.56;99667.73;107445;1279;72622;-69
2023/03/20 02:30:44;;;;;;;54.60;29.90;;;;;;;8.26;97.74;99675.79;107490;1278;59376;-69
2023/03/20 02:34:00;;;;;;;44.90;25.80;;;;;;;8.22;98.10;99667.77;107465;1279;59303;-69
2023/03/20 02:36:53;;;;;;;43.70;24.80;;;;;;;8.18;97.96;99668.38;107285;1279;71936;-69
2023/03/20 02:40:00;;;;;;;43.60;26.00;;;;;;;8.15;97.83;99666.52;107472;1279;68145;-73
2023/03/20 02:43:01;;;;;;;39.10;23.90;;;;;;;8.11;98.14;99665.91;107358;1279;72309;-70
2023/03/20 02:45:55;;;;;;;40.60;25.10;;;;;;;8.07;98.00;99664.43;107450;1278;58335;-69
2023/03/20 02:49:16;;;;;;;37.90;24.20;;;;;;;8.03;98.14;99664.27;107462;1278;59488;-70
2023/03/20 02:52:41;;;;;;;37.90;22.80;;;;;;;7.98;98.36;99660.73;107481;1278;71971;-69
2023/03/20 02:55:45;;;;;;;40.70;23.20;;;;;;;7.95;98.55;99657.40;107429;1278;67608;-69
2023/03/20 02:58:49;;;;;;;40.00;24.10;;;;;;;7.93;98.78;99653.44;107429;1278;71139;-69
2023/03/20 03:01:48;;;;;;;45.50;25.70;;;;;;;7.94;98.70;99649.52;107457;1279;57881;-71
2023/03/20 03:04:43;;;;;;;44.10;28.40;;;;;;;7.94;98.49;99648.44;107398;1278;59300;-70
2023/03/20 03:07:32;;;;;;;39.90;27.00;;;;;;;7.95;98.45;99648.69;107446;1278;72883;-70
2023/03/20 03:10:29;;;;;;;41.10;24.80;;;;;;;7.97;98.37;99646.98;107524;1278;68971;-70
2023/03/20 03:13:22;;;;;;;42.40;25.30;;;;;;;7.98;98.24;99643.71;106569;1278;1002484;-69
2023/03/20 03:16:18;;;;;;;39.50;24.40;;;;;;;7.99;98.08;99638.34;107465;1278;57720;-70
2023/03/20 03:19:12;;;;;;;39.50;23.40;;;;;;;8.02;98.39;99639.54;107352;1278;58854;-71
2023/03/20 03:21:59;;;;;;;40.20;24.40;;;;;;;8.04;97.66;99639.64;106557;1283;1002293;-70
2023/03/20 03:24:55;;;;;;;38.10;24.20;;;;;;;7.99;97.31;99634.67;107431;1278;67681;-70
2023/03/20 03:27:53;;;;;;;41.90;23.50;;;;;;;7.94;97.37;99636.99;107480;1278;73741;-71
2023/03/20 03:30:42;;;;;;;40.00;24.20;;;;;;;7.89;97.39;99627.84;107400;1278;60281;-71
2023/03/20 03:33:31;;;;;;;39.10;23.90;;;;;;;7.89;97.84;99626.59;107508;1278;60220;-70
2023/03/20 03:36:57;;;;;;;39.60;24.00;;;;;;;7.92;97.72;99627.73;107489;1281;72165;-72
2023/03/20 03:39:55;;;;;;;38.40;23.60;;;;;;;7.94;97.62;99621.41;107477;1278;68056;-71
2023/03/20 03:42:54;;;;;;;35.90;23.70;;;;;;;7.96;97.55;99618.23;107388;1278;72444;-71
2023/03/20 03:45:53;;;;;;;36.90;22.50;;;;;;;8.02;97.91;99619.96;107447;1278;59466;-70
2023/03/20 03:48:50;;;;;;;36.20;23.90;;;;;;;8.08;97.99;99620.05;107339;1278;60355;-69
2023/03/20 03:51:42;;;;;;;40.60;23.00;;;;;;;8.11;97.44;99619.46;107502;1278;72961;-72
2023/03/20 03:54:56;;;;;;;35.50;22.90;;;;;;;8.12;97.43;99618.67;107461;1278;67880;-70
2023/03/20 03:58:00;;;;;;;35.30;22.10;;;;;;;8.13;97.47;99611.86;107511;1278;72542;-69
2023/03/20 04:00:50;;;;;;;39.70;22.20;;;;;;;8.14;97.57;99608.43;107484;1278;59014;-71
2023/03/20 04:03:45;;;;;;;36.00;22.10;;;;;;;8.17;97.75;99605.94;107464;1278;60064;-70
2023/03/20 04:06:32;;;;;;;34.60;21.00;;;;;;;8.24;97.89;99606.66;107509;1278;74134;-71
2023/03/20 04:09:18;;;;;;;35.60;21.50;;;;;;;8.27;97.50;99601.48;107469;1278;66905;-69
2023/03/20 04:12:05;;;;;;;36.70;21.90;;;;;;;8.26;97.08;99599.95;107371;1278;72685;-73
2023/03/20 04:14:51;;;;;;;32.30;19.90;;;;;;;8.26;97.32;99601.36;107376;1278;59474;-70
2023/03/20 04:17:41;;;;;;;31.70;21.10;;;;;;;8.24;97.04;99604.52;107322;1278;60049;-70
2023/03/20 04:20:29;;;;;;;38.10;21.60;;;;;;;8.24;97.50;99604.54;107425;1278;72797;-70
2023/03/20 04:23:15;;;;;;;34.20;21.20;;;;;;;8.23;97.37;99602.48;107489;1278;65473;-70
2023/03/20 04:26:02;;;;;;;32.50;20.70;;;;;;;8.24;97.42;99598.88;107528;1278;71285;-72
2023/03/20 04:28:52;;;;;;;34.90;21.70;;;;;;;8.26;97.33;99603.90;107436;1278;59257;-72
2023/03/20 04:31:58;;;;;;;33.00;21.10;;;;;;;8.25;97.45;99603.92;107489;1278;58866;-71
2023/03/20 04:35:05;;;;;;;32.00;21.00;;;;;;;8.25;97.63;99599.19;107519;1278;72953;-71
2023/03/20 04:38:04;;;;;;;37.60;21.50;;;;;;;8.27;97.57;99598.11;107326;1278;65877;-70
2023/03/20 04:40:52;;;;;;;34.90;20.90;;;;;;;8.29;97.31;99595.52;107326;1278;73770;-70
2023/03/20 04:43:39;;;;;;;37.30;20.70;;;;;;;8.32;97.04;99595.30;107405;1278;59099;-68
2023/03/20 04:46:25;;;;;;;31.70;19.50;;;;;;;8.36;97.15;99593.89;107523;1279;59222;-69
2023/03/20 04:49:12;;;;;;;33.30;20.00;;;;;;;8.39;96.69;99592.80;107512;1278;73926;-69
2023/03/20 04:51:58;;;;;;;33.40;20.00;;;;;;;8.45;97.09;99585.42;107541;1279;67241;-70
2023/03/20 04:54:55;;;;;;;33.00;20.60;;;;;;;8.53;96.64;99582.92;107346;1279;71511;-69
2023/03/20 04:57:43;;;;;;;32.50;18.80;;;;;;;8.59;96.20;99583.91;107265;1279;58041;-70
2023/03/20 05:00:30;;;;;;;33.50;20.30;;;;;;;8.61;95.89;99580.52;107315;1278;60168;-70
2023/03/20 05:03:17;;;;;;;29.80;18.40;;;;;;;8.64;95.62;99577.52;107523;1279;71776;-70
2023/03/20 05:06:04;;;;;;;33.70;20.10;;;;;;;8.70;95.73;99574.77;107473;1279;68302;-70
2023/03/20 05:08:51;;;;;;;29.90;18.90;;;;;;;8.74;95.28;99575.11;107441;1278;71496;-72
2023/03/20 05:11:38;;;;;;;32.40;19.70;;;;;;;8.77;95.10;99577.86;107395;1279;58337;-73
2023/03/20 05:14:24;;;;;;;38.00;21.80;;;;;;;8.80;95.15;99581.92;107475;1279;60280;-72
2023/03/20 05:17:30;;;;;;;32.40;20.90;;;;;;;8.77;94.57;99582.14;107484;1279;73040;-70
2023/03/20 05:20:48;;;;;;;34.60;19.50;;;;;;;8.77;94.96;99587.63;106900;1283;68765;-69
2023/03/20 05:23:44;;;;;;;32.30;19.10;;;;;;;8.78;94.86;99588.65;106904;1283;73538;-70
2023/03/20 05:26:37;;;;;;;29.80;16.90;;;;;;;8.76;94.83;99589.82;106974;1284;58383;-71
2023/03/20 05:29:26;;;;;;;31.00;18.90;;;;;;;8.74;94.70;99585.05;107001;1282;60432;-71
2023/03/20 05:32:24;;;;;;;27.30;16.80;;;;;;;8.73;94.71;99585.16;107037;1283;73152;-72
2023/03/20 05:35:28;;;;;;;29.30;17.50;;;;;;;8.72;94.99;99587.64;106964;1282;66344;-71
2023/03/20 05:38:30;;;;;;;28.20;17.30;;;;;;;8.73;94.96;99582.11;107008;1281;73992;-71
2023/03/20 05:41:35;;;;;;;28.80;16.80;;;;;;;8.74;94.64;99582.19;107009;1281;60694;-71
2023/03/20 05:44:46;;;;;;;27.80;16.60;;;;;;;8.76;94.65;99581.02;107043;1281;60786;-71
2023/03/20 05:47:59;;;;;;;30.70;17.00;;;;;;;8.81;94.70;99583.45;107156;1281;73246;-72
2023/03/20 05:51:05;;;;;;;27.40;15.20;;;;;;;8.84;94.58;99585.27;107094;1278;69000;-71
2023/03/20 05:54:26;;;;;;;29.80;18.30;;;;;;;8.89;94.59;99582.45;107378;1278;72557;-73
2023/03/20 05:57:28;;;;;;;27.20;16.70;;;;;;;8.95;94.45;99589.81;107476;1277;57955;-73
2023/03/20 06:00:23;;;;;;;27.10;16.30;;;;;;;9.00;94.50;99582.14;107387;1279;60092;-71
2023/03/20 06:03:21;;;;;;;27.20;16.40;;;;;;;9.07;93.99;99581.95;107519;1279;72832;-73
2023/03/20 06:06:16;;;;;;;31.20;18.80;;;;;;;9.14;94.14;99578.34;107300;1278;68176;-71
2023/03/20 06:09:06;;;;;;;28.30;16.90;;;;;;;9.19;94.16;99576.38;107298;1279;73067;-71
2023/03/20 06:11:52;;;;;;;25.50;16.30;;;;;;;9.24;93.89;99578.86;107288;1278;58383;-71
2023/03/20 06:14:40;;;;;;;26.50;15.10;;;;;;;9.27;93.97;99579.44;107399;1279;58815;-76
2023/03/20 06:17:27;;;;;;;24.70;14.40;;;;;;;9.31;93.56;99581.45;107403;1279;72816;-78
2023/03/20 06:20:18;;;;;;;25.00;14.30;;;;;;;9.32;93.71;99577.47;107175;1278;66776;-72
2023/03/20 06:23:05;;;;;;;22.60;14.70;;;;;;;9.33;93.81;99574.20;107293;1279;71422;-72
2023/03/20 06:25:51;;;;;;;22.80;8.90;;;;;;;9.34;93.89;99578.71;107430;1279;57423;-75
2023/03/20 06:28:38;;;;;;;23.20;13.90;;;;;;;9.39;93.82;99579.39;107476;1279;59707;-73
2023/03/20 06:31:26;;;;;;;23.20;13.90;;;;;;;9.45;93.76;99580.34;107421;1279;72860;-73
2023/03/20 06:34:13;;;;;;;24.40;13.90;;;;;;;9.51;93.74;99578.97;107449;1278;68097;-71
2023/03/20 06:37:04;;;;;;;24.00;14.60;;;;;;;9.58;93.36;99581.60;107397;1279;73923;-72
2023/03/20 06:39:50;;;;;;;22.60;13.50;;;;;;;9.66;93.16;99582.33;107391;1279;58593;-72
2023/03/20 06:42:37;;;;;;;21.90;13.20;;;;;;;9.76;92.84;99582.97;107312;1279;60181;-70
2023/03/20 06:45:25;;;;;;;24.20;13.40;;;;;;;9.83;92.32;99579.95;107457;1279;70775;-72
2023/03/20 06:48:20;;;;;;;24.20;13.90;;;;;;;9.91;92.27;99578.57;107438;1278;67700;-73
2023/03/20 06:51:07;;;;;;;22.80;13.60;;;;;;;10.01;91.81;99579.30;107412;1279;72336;-72
2023/03/20 06:53:58;;;;;;;19.10;12.30;;;;;;;10.19;91.35;99584.92;107302;1279;60462;-71
2023/03/20 06:56:46;;;;;;;22.40;13.50;;;;;;;10.36;90.21;99584.98;107397;1279;60358;-72
2023/03/20 06:59:32;;;;;;;20.10;12.40;;;;;;;10.54;90.17;99588.77;107401;1278;72845;-71
2023/03/20 07:02:20;;;;;;;19.70;12.30;;;;;;;10.68;89.13;99585.45;107409;1279;67807;-71
2023/03/20 07:05:09;;;;;;;19.10;11.00;;;;;;;10.77;88.51;99580.58;107356;1279;72868;-70
2023/03/20 07:07:55;;;;;;;19.10;12.20;;;;;;;10.83;87.61;99580.62;107435;1279;57770;-68
2023/03/20 07:10:41;;;;;;;19.20;12.40;;;;;;;10.85;87.58;99583.05;107447;1279;59835;-72
2023/03/20 07:13:29;;;;;;;19.30;12.10;;;;;;;10.86;87.39;99583.91;107575;1279;72869;-70
2023/03/20 07:16:15;;;;;;;15.90;9.70;;;;;;;10.82;87.25;99585.25;107468;1278;66366;-74
2023/03/20 07:19:02;;;;;;;19.50;11.60;;;;;;;10.78;87.57;99584.79;107481;1278;71410;-72
2023/03/20 07:22:00;;;;;;;17.30;10.20;;;;;;;10.81;87.77;99588.05;107096;1279;57310;-71
2023/03/20 07:24:48;;;;;;;18.40;11.90;;;;;;;10.79;87.89;99579.52;107347;1279;60192;-72
2023/03/20 07:27:36;;;;;;;16.40;10.20;;;;;;;10.82;87.73;99582.43;107479;1279;72833;-75
2023/03/20 07:30:22;;;;;;;18.00;10.20;;;;;;;10.78;87.88;99578.77;107468;1278;66714;-74
2023/03/20 07:33:09;;;;;;;17.20;11.30;;;;;;;10.78;88.17;99576.96;107303;1278;72583;-72
2023/03/20 07:35:56;;;;;;;16.60;10.40;;;;;;;10.79;88.30;99577.30;107347;1279;58221;-72
2023/03/20 07:38:42;;;;;;;17.30;10.40;;;;;;;10.82;88.20;99579.81;107310;1279;60521;-75
2023/03/20 07:41:30;;;;;;;16.60;9.60;;;;;;;10.87;88.29;99583.27;107298;1278;72750;-72
2023/03/20 07:44:20;;;;;;;16.30;9.70;;;;;;;10.93;87.99;99581.55;107394;1279;66372;-72
2023/03/20 07:47:11;;;;;;;18.40;10.90;;;;;;;10.95;88.01;99580.80;107390;1279;73563;-73
2023/03/20 07:49:57;;;;;;;16.10;9.90;;;;;;;11.05;87.95;99582.75;107384;1278;57987;-74
2023/03/20 07:52:50;;;;;;;18.50;11.50;;;;;;;11.13;87.76;99583.17;107540;1281;60287;-76
2023/03/20 07:55:39;;;;;;;18.80;11.30;;;;;;;11.19;87.48;99587.54;107325;1278;72952;-74
2023/03/20 07:58:28;;;;;;;20.80;11.70;;;;;;;11.29;87.32;99583.56;107479;1278;65610;-73
2023/03/20 08:01:15;;;;;;;21.70;13.10;;;;;;;11.43;86.87;99587.80;107499;1279;72556;-73
2023/03/20 08:04:01;;;;;;;24.60;13.60;;;;;;;11.50;86.25;99583.09;107536;1278;59383;-73
2023/03/20 08:06:48;;;;;;;20.70;13.60;;;;;;;11.62;85.87;99587.40;107553;1281;58902;-75
2023/03/20 08:09:35;;;;;;;22.60;14.10;;;;;;;11.80;85.50;99585.35;107580;1278;74043;-75
2023/03/20 08:12:21;;;;;;;22.20;14.70;;;;;;;12.03;84.09;99579.61;107540;1277;66353;-76
2023/03/20 08:15:09;;;;;;;19.90;13.50;;;;;;;12.81;83.66;99579.02;107562;1278;72425;-76
2023/03/20 08:17:57;;;;;;;20.60;12.60;;;;;;;15.00;78.20;99566.99;107547;1277;60464;-76
2023/03/20 08:20:45;;;;;;;19.10;12.90;;;;;;;17.11;69.28;99561.23;107531;1278;59307;-74
2023/03/20 08:23:32;;;;;;;17.70;12.60;;;;;;;18.92;60.76;99558.15;107561;1279;72034;-78
2023/03/20 08:26:18;;;;;;;15.90;10.70;;;;;;;20.22;56.98;99560.78;107508;1279;67709;-75
2023/03/20 08:29:05;;;;;;;19.70;12.90;;;;;;;20.99;52.09;99559.09;107406;1279;71232;-77
2023/03/20 08:31:51;;;;;;;16.10;11.10;;;;;;;21.65;49.01;99562.38;107410;1282;57334;-76
2023/03/20 08:34:38;;;;;;;15.70;10.90;;;;;;;22.66;47.29;99554.08;107466;1279;58143;-77
2023/03/20 08:37:24;;;;;;;15.20;10.70;;;;;;;23.64;44.34;99547.27;107469;1279;72952;-67
2023/03/20 08:40:11;;;;;;;15.10;10.40;;;;;;;24.48;42.25;99544.77;107445;1279;66639;-70
2023/03/20 08:42:58;;;;;;;13.50;9.80;;;;;;;25.25;39.59;99546.63;107416;1279;72847;-70
2023/03/20 08:45:45;;;;;;;13.80;8.80;;;;;;;26.00;38.15;99549.72;107443;1279;57877;-69
2023/03/20 08:48:31;;;;;;;11.40;8.00;;;;;;;26.47;36.66;99555.52;107436;1279;61221;-68
2023/03/20 08:51:18;;;;;;;12.80;8.40;;;;;;;26.39;35.22;99553.90;107427;1279;72075;-68
2023/03/20 08:54:04;;;;;;;12.90;8.60;;;;;;;26.60;35.33;99550.02;107419;1282;67933;-68
2023/03/20 08:56:51;;;;;;;12.90;7.80;;;;;;;26.47;34.90;99550.44;107443;1279;71558;-70
2023/03/20 08:59:38;;;;;;;12.30;8.20;;;;;;;26.59;35.09;99546.20;107413;1279;57277;-70
2023/03/20 09:02:24;;;;;;;11.60;7.10;;;;;;;27.02;34.32;99540.94;107423;1279;58954;-71
2023/03/20 09:05:11;;;;;;;12.40;8.30;;;;;;;27.52;33.30;99541.75;107285;1279;73139;-68
2023/03/20 09:07:59;;;;;;;12.20;7.80;;;;;;;27.58;32.03;99543.30;107491;1279;68086;-70
2023/03/20 09:10:47;;;;;;;11.00;7.10;;;;;;;27.45;32.81;99546.09;107500;1279;71464;-68
2023/03/20 09:13:36;;;;;;;11.20;7.90;;;;;;;26.78;33.49;99553.25;107487;1279;57431;-69
2023/03/20 09:16:22;;;;;;;12.30;7.90;;;;;;;26.61;33.57;99552.91;107485;1279;60105;-68
2023/03/20 09:19:09;;;;;;;12.20;7.80;;;;;;;27.18;33.02;99552.84;107476;1279;74038;-69
2023/03/20 09:21:55;;;;;;;12.30;7.90;;;;;;;27.13;31.76;99554.00;107422;1279;68277;-68
2023/03/20 09:24:42;;;;;;;11.00;7.70;;;;;;;26.84;32.30;99555.61;107462;1279;73882;-69
2023/03/20 09:27:28;;;;;;;10.80;7.20;;;;;;;27.31;32.02;99553.34;107431;1279;58954;-70
2023/03/20 09:30:15;;;;;;;11.50;7.10;;;;;;;27.66;31.65;99560.39;107482;1279;58905;-68
2023/03/20 09:33:02;;;;;;;11.30;7.20;;;;;;;27.66;31.54;99563.66;107465;1279;73165;-69
2023/03/20 09:35:48;;;;;;;12.70;7.40;;;;;;;26.19;32.49;99569.03;107474;1279;66391;-68
2023/03/20 09:38:35;;;;;;;11.60;6.80;;;;;;;24.17;35.23;99575.31;107460;1279;71272;-68
2023/03/20 09:41:26;;;;;;;12.60;7.40;;;;;;;22.33;38.27;99587.14;107404;1279;57699;-68
2023/03/20 09:44:48;;;;;;;12.60;7.80;;;;;;;20.67;41.54;99587.63;107507;1278;58984;-69
2023/03/20 09:47:52;;;;;;;14.80;8.40;;;;;;;19.05;45.31;99588.02;107453;1279;72772;-69
2023/03/20 09:51:06;;;;;;;12.50;7.90;;;;;;;17.93;48.76;99598.02;107442;1279;66395;-69
2023/03/20 09:54:02;;;;;;;14.20;8.90;;;;;;;16.96;51.96;99599.27;107355;1280;72510;-69
2023/03/20 09:56:54;;;;;;;17.60;10.70;;;;;;;16.31;55.38;99599.64;107281;1278;57445;-68
2023/03/20 09:59:41;;;;;;;14.20;9.40;;;;;;;16.16;56.56;99600.69;107428;1279;59073;-69
2023/03/20 10:02:59;;;;;;;13.30;8.10;;;;;;;16.10;56.97;99599.42;107103;1279;74128;-70
2023/03/20 10:05:56;;;;;;;12.10;7.50;;;;;;;15.50;57.84;99595.55;107359;1279;67790;-68
2023/03/20 10:08:44;;;;;;;13.30;7.80;;;;;;;15.30;58.99;99597.27;107334;1278;73712;-69
2023/03/20 10:11:37;;;;;;;12.10;8.00;;;;;;;15.47;59.17;99591.20;107382;1279;57955;-70
2023/03/20 10:14:36;;;;;;;13.00;7.20;;;;;;;15.86;58.10;99588.76;107368;1279;61617;-69
2023/03/20 10:18:03;;;;;;;12.30;7.50;;;;;;;17.14;55.11;99585.68;107483;1280;73922;-69
2023/03/20 10:21:12;;;;;;;11.80;7.20;;;;;;;18.00;52.33;99593.17;107439;1279;67736;-70
2023/03/20 10:24:10;;;;;;;12.70;8.00;;;;;;;17.68;52.19;99593.11;107397;1279;71203;-68
2023/03/20 10:27:04;;;;;;;11.80;7.30;;;;;;;17.28;52.68;99584.10;107265;1284;57427;-69
2023/03/20 10:30:22;;;;;;;13.50;7.70;;;;;;;17.01;53.02;99596.96;107432;1280;58866;-67
2023/03/20 10:33:43;;;;;;;15.90;9.10;;;;;;;16.52;54.64;99598.68;107480;1279;72806;-69
2023/03/20 10:36:53;;;;;;;14.80;8.40;;;;;;;16.03;55.85;99612.02;107439;1279;67964;-68
2023/03/20 10:40:13;;;;;;;15.80;8.90;;;;;;;15.82;56.94;99601.50;107315;1280;73717;-68
2023/03/20 10:43:19;;;;;;;14.20;8.60;;;;;;;16.02;57.05;99604.17;107280;1278;57892;-69
2023/03/20 10:46:13;;;;;;;13.90;8.40;;;;;;;15.73;57.00;99606.15;107464;1279;60274;-67
2023/03/20 10:49:18;;;;;;;17.70;9.60;;;;;;;15.24;58.35;99604.95;107434;1278;74135;-68
2023/03/20 10:52:15;;;;;;;16.80;10.60;;;;;;;14.78;60.00;99611.95;107409;1280;68653;-70
2023/03/20 10:55:19;;;;;;;18.30;11.40;;;;;;;14.36;62.04;99613.83;107254;1280;72706;-69
2023/03/20 10:58:18;;;;;;;17.50;10.30;;;;;;;14.12;63.82;99610.60;107421;1279;58450;-71
2023/03/20 11:01:06;;;;;;;20.10;12.70;;;;;;;14.07;64.47;99616.70;107435;1280;59362;-69
2023/03/20 11:03:54;;;;;;;20.30;12.40;;;;;;;13.90;65.12;99620.96;107268;1280;73981;-67
2023/03/20 11:07:01;;;;;;;24.40;13.30;;;;;;;13.56;66.59;99620.89;107277;1279;66007;-67
2023/03/20 11:10:12;;;;;;;18.90;11.30;;;;;;;13.18;68.13;99626.96;107424;1279;73927;-75
2023/03/20 11:13:29;;;;;;;23.60;14.20;;;;;;;12.71;70.10;99623.57;107451;1279;57992;-76
2023/03/20 11:16:22;;;;;;;23.80;13.70;;;;;;;12.28;71.58;99626.05;107459;1278;60056;-74
2023/03/20 11:19:10;;;;;;;21.60;12.90;;;;;;;12.05;72.61;99629.23;107485;1279;72262;-76
2023/03/20 11:22:00;;;;;;;21.90;12.10;;;;;;;11.81;73.57;99629.94;107350;1280;67749;-75
2023/03/20 11:24:55;;;;;;;24.90;13.60;;;;;;;11.65;74.25;99628.70;107343;1279;70611;-75
2023/03/20 11:27:41;;;;;;;21.60;12.10;;;;;;;11.74;74.78;99622.93;107434;1279;57966;-77
2023/03/20 11:30:28;;;;;;;23.70;12.70;;;;;;;11.91;74.07;99618.91;107778;1280;59398;-76
2023/03/20 11:33:15;;;;;;;24.80;13.90;;;;;;;11.93;72.99;99621.22;107751;1279;72771;-76
2023/03/20 11:36:11;;;;;;;22.40;12.50;;;;;;;11.81;72.94;99622.05;107716;1279;68131;-76
2023/03/20 11:39:28;;;;;;;20.90;11.70;;;;;;;11.66;73.25;99627.02;107544;1279;72629;-76
2023/03/20 11:42:26;;;;;;;27.80;13.70;;;;;;;11.42;73.91;99632.13;107546;1279;57808;-77
2023/03/20 11:45:16;;;;;;;25.90;12.00;;;;;;;11.08;74.89;99631.20;107473;1279;61234;-76
2023/03/20 11:48:05;;;;;;;28.70;14.90;;;;;;;10.88;75.42;99630.70;107446;1279;72855;-76
2023/03/20 11:51:09;;;;;;;26.50;13.10;;;;;;;10.76;76.28;99630.34;107359;1279;205908;-77
2023/03/20 11:53:56;;;;;;;24.20;12.90;;;;;;;10.67;77.11;99626.48;107388;1279;73602;-75
2023/03/20 11:56:58;;;;;;;24.30;12.90;;;;;;;10.92;76.17;99625.29;107432;1279;60308;-74
2023/03/20 11:59:45;;;;;;;21.50;10.70;;;;;;;11.83;72.41;99619.29;107564;1279;59728;-75
2023/03/20 12:02:34;;;;;;;21.70;11.70;;;;;;;12.13;69.75;99612.17;107478;1279;73079;-76
2023/03/20 12:05:38;;;;;;;18.00;9.70;;;;;;;12.30;69.15;99609.73;107207;1282;67750;-75
2023/03/20 12:08:30;;;;;;;19.30;9.40;;;;;;;12.47;68.42;99605.52;107475;1278;72621;-76
2023/03/20 12:11:57;;;;;;;16.60;9.20;;;;;;;12.19;67.48;99606.59;107405;1279;58064;-74
2023/03/20 12:14:51;;;;;;;18.60;9.70;;;;;;;11.93;68.06;99609.50;107340;1279;58764;-76
2023/03/20 12:17:59;;;;;;;16.90;8.80;;;;;;;11.78;68.55;99610.33;107506;1279;72878;-73
2023/03/20 12:21:32;;;;;;;15.10;8.20;;;;;;;11.51;69.28;99613.06;107426;1279;68803;-75
2023/03/20 12:24:32;;;;;;;18.40;9.30;;;;;;;11.26;70.50;99608.98;107436;1279;72729;-72
2023/03/20 12:27:35;;;;;;;18.40;9.50;;;;;;;11.12;70.93;99603.52;107435;1279;58742;-73
2023/03/20 12:31:19;;;;;;;18.50;9.70;;;;;;;11.00;71.33;99601.35;107524;1279;58883;-75
2023/03/20 12:34:22;;;;;;;21.80;10.40;;;;;;;10.89;72.42;99596.56;107518;1279;72864;-76
2023/03/20 12:37:12;;;;;;;20.30;10.70;;;;;;;10.78;72.73;99597.73;107537;1278;67806;-74
2023/03/20 12:40:03;;;;;;;20.20;10.10;;;;;;;10.66;72.69;99598.38;107511;1278;71730;-74
2023/03/20 12:42:55;;;;;;;19.10;10.10;;;;;;;10.51;73.65;99599.15;107393;1279;60644;-74
2023/03/20 12:46:33;;;;;;;19.80;10.30;;;;;;;10.26;74.33;99601.36;107498;1279;60431;-73
2023/03/20 12:49:45;;;;;;;18.30;8.70;;;;;;;10.05;75.25;99601.33;107495;1278;73121;-77
2023/03/20 12:53:20;;;;;;;20.10;10.10;;;;;;;9.93;75.99;99607.27;107654;1278;66377;-76
2023/03/20 12:56:40;;;;;;;17.60;9.00;;;;;;;9.74;76.76;99605.47;106949;1283;72744;-75
2023/03/20 12:59:29;;;;;;;17.80;9.20;;;;;;;9.42;77.44;99608.73;107040;1283;57369;-79
2023/03/20 13:02:58;;;;;;;15.70;7.90;;;;;;;9.25;78.56;99612.02;107053;1283;59049;-77
2023/03/20 13:06:03;;;;;;;17.20;7.90;;;;;;;9.07;79.06;99612.17;106917;1284;73212;-74
2023/03/20 13:09:41;;;;;;;15.40;7.80;;;;;;;8.96;79.78;99616.56;106756;1285;67868;-75
2023/03/20 13:13:05;;;;;;;16.20;7.40;;;;;;;8.75;80.40;99610.59;106958;1284;72529;-76
2023/03/20 13:16:23;;;;;;;13.00;5.90;;;;;;;8.61;81.21;99605.45;106738;1285;57918;-76
2023/03/20 13:19:53;;;;;;;11.80;6.00;;;;;;;8.49;81.41;99610.65;106965;1284;60030;-74
2023/03/20 13:22:57;;;;;;;12.80;5.50;;;;;;;8.32;82.10;99608.16;106824;1285;74368;-75